Time;durP1;ratioP1;P1;durP2;ratioP2;P2;SDS_P1;SDS_P2;PMS_P1;PMS_P2;Temp;Humidity;BMP_temperature;BMP_pressure;BME280_temperature;BME280_humidity;BME280_pressure;Samples;Min_cycle;Max_cycle;Signal;HPM_P1;HPM_P2
2021/10/30 00:00:10;;;;;;;16.27;6.63;;;;;;;10.64;100.00;100472.97;4999524;28;20512;-79
2021/10/30 00:02:35;;;;;;;19.33;8.63;;;;;;;10.67;100.00;100472.56;4998248;28;20042;-80
2021/10/30 00:05:01;;;;;;;20.42;7.80;;;;;;;10.54;100.00;100451.88;4997290;28;20049;-80
2021/10/30 00:07:26;;;;;;;16.55;7.68;;;;;;;10.64;100.00;100472.97;4997347;28;20038;-80
2021/10/30 00:09:52;;;;;;;15.93;6.60;;;;;;;10.62;100.00;100472.34;4996212;28;20031;-80
2021/10/30 00:12:17;;;;;;;19.52;7.65;;;;;;;10.61;100.00;100467.19;4982209;28;20030;-81
2021/10/30 00:14:43;;;;;;;16.25;7.75;;;;;;;10.59;100.00;100467.38;4980310;28;20092;-80
2021/10/30 00:17:12;;;;;;;17.73;7.20;;;;;;;10.60;100.00;100474.44;4996515;28;20121;-79
2021/10/30 00:19:38;;;;;;;19.60;7.70;;;;;;;10.52;100.00;100445.84;4980096;28;20109;-80
2021/10/30 00:22:04;;;;;;;20.00;7.40;;;;;;;10.66;100.00;100460.16;4996751;28;20030;-80
2021/10/30 00:24:33;;;;;;;20.25;7.28;;;;;;;10.61;100.00;100459.94;4991614;28;20031;-79
2021/10/30 00:27:03;;;;;;;17.98;7.25;;;;;;;10.64;100.00;100458.69;4977313;28;20019;-79
2021/10/30 00:29:30;;;;;;;15.60;7.18;;;;;;;10.63;100.00;100457.03;4966820;28;20030;-79
2021/10/30 00:31:56;;;;;;;17.45;7.18;;;;;;;10.67;100.00;100467.19;4961540;28;20081;-80
2021/10/30 00:34:23;;;;;;;15.95;7.10;;;;;;;10.67;100.00;100469.06;4966345;28;20026;-80
2021/10/30 00:36:52;;;;;;;21.13;7.13;;;;;;;10.66;100.00;100465.53;4996656;28;20038;-80
2021/10/30 00:39:18;;;;;;;21.15;7.93;;;;;;;10.66;100.00;100456.63;4979163;28;20023;-80
2021/10/30 00:41:52;;;;;;;20.00;7.57;;;;;;;10.65;100.00;100461.16;4997392;28;20437;-80
2021/10/30 00:44:19;;;;;;;19.85;7.82;;;;;;;10.55;100.00;100433.88;4996660;28;20022;-79
2021/10/30 00:46:48;;;;;;;17.13;7.50;;;;;;;10.67;100.00;100442.16;5001920;28;20053;-79
2021/10/30 00:49:15;;;;;;;21.15;7.50;;;;;;;10.64;100.00;100442.56;5004002;28;20017;-80
2021/10/30 00:51:47;;;;;;;22.38;7.38;;;;;;;10.66;100.00;100448.53;4991142;28;20030;-80
2021/10/30 00:54:14;;;;;;;15.88;7.60;;;;;;;10.67;100.00;100444.84;4977729;28;20030;-80
2021/10/30 00:56:42;;;;;;;17.73;8.23;;;;;;;10.61;100.00;100448.34;4996384;28;20038;-80
2021/10/30 00:59:14;;;;;;;14.60;7.05;;;;;;;10.54;100.00;100430.34;4996509;28;20030;-79
2021/10/30 01:01:42;;;;;;;23.02;7.68;;;;;;;10.54;100.00;100433.03;4982821;28;20046;-80
2021/10/30 01:04:08;;;;;;;20.70;8.07;;;;;;;10.65;100.00;100445.03;5002565;28;20042;-80
2021/10/30 01:06:34;;;;;;;17.10;8.27;;;;;;;10.63;100.00;100439.03;5011030;28;20030;-80
2021/10/30 01:09:00;;;;;;;21.05;8.32;;;;;;;10.61;100.00;100437.59;5006919;28;20173;-80
2021/10/30 01:11:27;;;;;;;17.08;7.95;;;;;;;10.59;100.00;100443.16;4998160;28;20042;-79
2021/10/30 01:13:54;;;;;;;18.70;7.80;;;;;;;10.56;100.00;100446.28;4999057;28;20096;-80
2021/10/30 01:16:20;;;;;;;15.45;8.50;;;;;;;10.52;100.00;100440.47;4983562;28;20023;-80
2021/10/30 01:18:46;;;;;;;15.70;8.57;;;;;;;10.47;100.00;100436.78;4980427;28;20448;-79
2021/10/30 01:21:13;;;;;;;19.63;8.55;;;;;;;10.41;100.00;100434.91;4979991;28;20081;-80
2021/10/30 01:23:38;;;;;;;20.05;8.65;;;;;;;10.42;100.00;100431.19;4998954;28;20463;-80
2021/10/30 01:26:04;;;;;;;19.00;8.95;;;;;;;10.41;100.00;100430.34;4983120;28;20044;-79
2021/10/30 01:28:39;;;;;;;23.92;9.40;;;;;;;10.22;100.00;100401.56;4998917;28;20026;-80
2021/10/30 01:31:04;;;;;;;19.42;9.90;;;;;;;10.43;100.00;100436.38;4981145;28;20352;-80
2021/10/30 01:33:30;;;;;;;20.38;10.18;;;;;;;10.41;100.00;100429.53;4962307;28;20046;-80
2021/10/30 01:35:56;;;;;;;17.83;9.98;;;;;;;10.33;100.00;100409.03;4996948;28;20451;-80
2021/10/30 01:38:22;;;;;;;19.02;9.35;;;;;;;10.49;100.00;100432.81;4981526;28;20069;-80
2021/10/30 01:40:50;;;;;;;25.98;10.57;;;;;;;10.50;100.00;100425.59;4981523;28;20057;-80
2021/10/30 01:43:17;;;;;;;20.23;11.02;;;;;;;10.46;100.00;100421.66;4999798;28;20106;-80
2021/10/30 01:45:44;;;;;;;20.10;10.48;;;;;;;10.47;100.00;100424.16;4981728;28;20074;-79
2021/10/30 01:48:11;;;;;;;26.30;11.20;;;;;;;10.45;100.00;100426.22;5000705;28;20019;-80
2021/10/30 01:50:38;;;;;;;26.58;11.13;;;;;;;10.45;100.00;100426.22;4982217;28;20032;-80
2021/10/30 01:53:04;;;;;;;20.05;10.95;;;;;;;10.41;100.00;100411.53;4975005;28;20126;-80
2021/10/30 01:55:38;;;;;;;24.40;11.35;;;;;;;10.35;100.00;100397.03;4963518;28;20058;-80
2021/10/30 01:58:05;;;;;;;26.88;11.68;;;;;;;10.43;100.00;100414.00;4952291;28;20022;-81
2021/10/30 02:00:30;;;;;;;18.02;11.35;;;;;;;10.42;100.00;100412.34;4990084;28;20062;-80
2021/10/30 02:02:56;;;;;;;24.42;12.07;;;;;;;10.41;100.00;100418.78;5001498;28;20471;-80
2021/10/30 02:05:22;;;;;;;19.38;11.45;;;;;;;10.40;100.00;100412.56;5001277;28;20035;-81
2021/10/30 02:07:48;;;;;;;21.83;12.00;;;;;;;10.34;100.00;100416.91;5003248;28;20060;-80
2021/10/30 02:10:14;;;;;;;29.58;12.70;;;;;;;10.40;100.00;100417.09;4992710;28;20121;-81
2021/10/30 02:12:41;;;;;;;23.88;12.18;;;;;;;10.38;100.00;100416.50;5008811;28;20061;-81
2021/10/30 02:15:07;;;;;;;26.23;12.90;;;;;;;10.38;100.00;100428.06;5000860;28;20034;-80
2021/10/30 02:17:33;;;;;;;26.52;13.30;;;;;;;10.34;100.00;100422.28;5001224;28;20042;-81
2021/10/30 02:19:58;;;;;;;24.27;12.73;;;;;;;10.28;100.00;100422.28;5002217;28;20030;-80
2021/10/30 02:22:24;;;;;;;25.13;13.32;;;;;;;10.19;100.00;100407.34;4987481;28;20379;-81
2021/10/30 02:24:50;;;;;;;27.15;13.82;;;;;;;10.24;100.00;100418.34;4994986;28;20042;-81
2021/10/30 02:27:17;;;;;;;28.58;13.77;;;;;;;10.33;100.00;100419.78;4971569;28;20026;-80
2021/10/30 02:29:42;;;;;;;28.45;13.45;;;;;;;10.33;100.00;100425.16;4984460;28;20045;-81
2021/10/30 02:32:08;;;;;;;26.83;13.98;;;;;;;10.31;100.00;100425.38;4982618;28;20117;-81
2021/10/30 02:34:33;;;;;;;27.50;14.60;;;;;;;10.24;100.00;100421.84;4958765;28;20053;-81
2021/10/30 02:36:59;;;;;;;26.27;14.45;;;;;;;10.26;100.00;100419.78;4972690;28;20049;-81
2021/10/30 02:39:24;;;;;;;29.40;15.02;;;;;;;10.15;100.00;100396.19;4964040;28;20041;-81
2021/10/30 02:41:50;;;;;;;29.27;14.02;;;;;;;10.25;100.00;100425.34;4988127;28;20080;-82
2021/10/30 02:44:15;;;;;;;26.45;15.02;;;;;;;10.23;100.00;100422.88;5004732;28;20026;-81
2021/10/30 02:46:41;;;;;;;29.88;15.50;;;;;;;10.24;100.00;100419.16;5003761;28;20034;-81
2021/10/30 02:49:07;;;;;;;25.23;14.93;;;;;;;10.27;100.00;100421.47;4986939;28;20038;-81
2021/10/30 02:51:33;;;;;;;31.73;15.98;;;;;;;10.31;100.00;100409.25;5002398;28;20106;-80
2021/10/30 02:53:58;;;;;;;30.70;16.73;;;;;;;10.36;100.00;100416.69;4985429;28;20049;-81
2021/10/30 02:56:24;;;;;;;32.90;16.35;;;;;;;10.41;100.00;100418.78;4986788;28;20030;-81
2021/10/30 02:58:49;;;;;;;28.98;16.38;;;;;;;10.39;100.00;100415.44;5004559;28;20657;-80
2021/10/30 03:01:15;;;;;;;32.00;17.00;;;;;;;10.46;100.00;100432.41;4984761;28;20092;-81
2021/10/30 03:03:41;;;;;;;34.85;16.67;;;;;;;10.45;100.00;100420.00;5003169;28;20030;-80
2021/10/30 03:06:07;;;;;;;30.70;17.42;;;;;;;10.44;100.00;100421.06;5002993;28;20500;-81
2021/10/30 03:08:33;;;;;;;34.40;17.67;;;;;;;10.48;100.00;100415.03;4987393;28;20113;-81
2021/10/30 03:10:59;;;;;;;31.98;18.98;;;;;;;10.45;100.00;100406.56;5004199;28;20053;-82
2021/10/30 03:13:24;;;;;;;33.33;18.05;;;;;;;10.58;100.00;100430.75;4989083;28;20070;-81
2021/10/30 03:15:50;;;;;;;38.45;18.42;;;;;;;10.55;100.00;100412.34;4975050;28;20034;-81
2021/10/30 03:18:15;;;;;;;37.47;19.95;;;;;;;10.50;100.00;100401.41;4987960;28;20058;-81
2021/10/30 03:20:40;;;;;;;32.30;18.95;;;;;;;10.51;100.00;100409.25;4971322;28;20352;-81
2021/10/30 03:23:06;;;;;;;38.03;19.83;;;;;;;10.47;100.00;100401.81;5003655;28;20022;-81
2021/10/30 03:25:33;;;;;;;39.90;19.63;;;;;;;10.66;100.00;100413.56;5006793;28;20041;-81
2021/10/30 03:27:59;;;;;;;32.13;18.20;;;;;;;10.45;100.00;100388.56;4981627;28;20038;-80
2021/10/30 03:30:25;;;;;;;32.60;19.40;;;;;;;10.58;100.00;100403.84;5011279;28;20030;-81
2021/10/30 03:32:50;;;;;;;34.67;19.90;;;;;;;10.69;100.00;100416.66;5004072;28;20030;-81
2021/10/30 03:35:16;;;;;;;35.92;19.80;;;;;;;10.55;100.00;100390.81;5003184;28;20037;-81
2021/10/30 03:37:41;;;;;;;38.85;20.63;;;;;;;10.68;100.00;100403.44;5002486;28;20038;-81
2021/10/30 03:40:08;;;;;;;36.28;20.95;;;;;;;10.67;100.00;100402.59;4985742;28;20062;-81
2021/10/30 03:42:34;;;;;;;37.08;21.17;;;;;;;10.63;100.00;100408.59;4979203;28;20059;-81
2021/10/30 03:45:01;;;;;;;34.63;20.25;;;;;;;10.67;100.00;100412.53;4999873;28;20061;-80
2021/10/30 03:47:28;;;;;;;39.67;22.52;;;;;;;10.68;100.00;100411.50;4986575;28;20081;-81
2021/10/30 03:49:54;;;;;;;32.65;21.63;;;;;;;10.63;100.00;100404.06;4986107;28;20038;-81
2021/10/30 03:52:19;;;;;;;37.35;23.23;;;;;;;10.57;100.00;100402.22;5002990;28;20183;-81
2021/10/30 03:54:45;;;;;;;38.83;22.75;;;;;;;10.65;100.00;100406.53;4967273;28;20041;-81
2021/10/30 03:57:10;;;;;;;34.03;22.05;;;;;;;10.65;100.00;100410.03;5000246;28;20041;-81
2021/10/30 03:59:37;;;;;;;42.80;24.50;;;;;;;10.63;100.00;100433.66;4987668;28;20037;-81
2021/10/30 04:02:04;;;;;;;42.83;24.02;;;;;;;10.65;100.00;100441.50;5008524;28;20480;-81
2021/10/30 04:04:30;;;;;;;40.78;24.30;;;;;;;10.61;100.00;100445.66;5004742;28;20068;-81
2021/10/30 04:06:56;;;;;;;44.28;26.30;;;;;;;10.65;100.00;100447.72;5005854;28;20018;-81
2021/10/30 04:09:24;;;;;;;44.05;26.77;;;;;;;10.63;100.00;100454.34;4989305;28;20041;-81
2021/10/30 04:11:52;;;;;;;44.30;28.67;;;;;;;10.57;100.00;100459.53;4989636;28;20038;-81
2021/10/30 04:14:18;;;;;;;51.97;29.83;;;;;;;10.51;100.00;100456.84;5008596;28;20030;-81
2021/10/30 04:16:43;;;;;;;56.17;31.05;;;;;;;10.62;100.00;100464.28;5010963;28;20073;-81
2021/10/30 04:19:09;;;;;;;50.05;31.60;;;;;;;10.52;100.00;100447.72;4994448;28;20046;-81
2021/10/30 04:21:35;;;;;;;53.20;31.17;;;;;;;10.63;100.00;100468.66;5012583;28;20041;-81
2021/10/30 04:24:01;;;;;;;55.75;32.90;;;;;;;10.61;100.00;100483.34;5016724;28;20022;-82
2021/10/30 04:26:28;;;;;;;59.33;34.50;;;;;;;10.57;100.00;100466.78;4998321;28;20037;-81
2021/10/30 04:28:55;;;;;;;64.25;35.50;;;;;;;10.56;100.00;100483.94;5009452;28;20054;-82
2021/10/30 04:31:23;;;;;;;68.82;38.85;;;;;;;10.53;100.00;100463.69;4975764;28;20041;-81
2021/10/30 04:33:52;;;;;;;76.28;40.40;;;;;;;10.45;100.00;100447.72;4995214;28;20033;-82
2021/10/30 04:36:17;;;;;;;71.75;41.08;;;;;;;10.54;100.00;100459.94;5013285;28;20401;-81
2021/10/30 04:38:45;;;;;;;80.13;42.30;;;;;;;10.55;100.00;100450.81;4988544;28;19998;-83
2021/10/30 04:41:11;;;;;;;72.95;42.13;;;;;;;10.53;100.00;100450.22;5021426;28;20022;-82
2021/10/30 04:43:37;;;;;;;71.20;43.42;;;;;;;10.56;100.00;100454.34;5003370;28;20034;-82
2021/10/30 04:46:02;;;;;;;77.05;43.20;;;;;;;10.47;100.00;100445.66;4999908;28;20027;-82
2021/10/30 04:48:28;;;;;;;78.65;43.97;;;;;;;10.55;100.00;100452.69;4984010;28;20638;-82
2021/10/30 04:50:53;;;;;;;74.57;43.50;;;;;;;10.54;100.00;100461.81;5018418;28;20018;-82
2021/10/30 04:53:19;;;;;;;82.35;45.08;;;;;;;10.53;100.00;100462.84;5000507;28;20026;-83
2021/10/30 04:55:44;;;;;;;79.50;45.70;;;;;;;10.51;100.00;100470.28;5015818;28;20030;-82
2021/10/30 04:58:09;;;;;;;90.65;46.17;;;;;;;10.51;100.00;100467.59;5016928;28;20037;-82
2021/10/30 05:00:35;;;;;;;83.18;46.53;;;;;;;10.51;100.00;100471.13;5018677;28;20052;-81
2021/10/30 05:03:00;;;;;;;82.95;46.33;;;;;;;10.49;100.00;100473.19;5015915;28;20054;-82
2021/10/30 05:05:26;;;;;;;84.82;46.85;;;;;;;10.49;100.00;100475.03;5014149;28;20049;-81
2021/10/30 05:07:52;;;;;;;97.85;49.78;;;;;;;10.45;100.00;100471.13;4996981;28;20040;-82
2021/10/30 05:10:18;;;;;;;92.65;49.30;;;;;;;10.48;100.00;100484.97;5012407;28;20105;-80
2021/10/30 05:12:44;;;;;;;93.03;50.65;;;;;;;10.47;100.00;100488.72;5014411;28;20034;-82
2021/10/30 05:15:10;;;;;;;92.15;51.08;;;;;;;10.40;100.00;100468.19;5016800;28;20053;-81
2021/10/30 05:17:36;;;;;;;97.47;51.22;;;;;;;10.40;100.00;100461.00;4981048;28;20037;-81
2021/10/30 05:20:02;;;;;;;95.65;49.28;;;;;;;10.43;100.00;100447.13;4995550;28;20027;-81
2021/10/30 05:22:27;;;;;;;100.85;51.05;;;;;;;10.53;100.00;100458.28;4998672;28;20049;-82
2021/10/30 05:24:52;;;;;;;103.47;52.00;;;;;;;10.57;100.00;100481.06;4997280;28;20114;-82
2021/10/30 05:27:18;;;;;;;104.55;53.25;;;;;;;10.57;100.00;100481.06;4996796;28;20034;-82
2021/10/30 05:29:43;;;;;;;99.57;53.30;;;;;;;10.58;100.00;100481.88;5001893;28;20030;-81
2021/10/30 05:32:08;;;;;;;115.10;54.53;;;;;;;10.60;100.00;100479.81;5007888;28;20042;-82
2021/10/30 05:34:34;;;;;;;98.50;52.00;;;;;;;10.59;100.00;100480.84;5011267;28;20034;-81
2021/10/30 05:36:59;;;;;;;104.88;51.72;;;;;;;10.55;100.00;100480.41;5010160;28;20076;-81
2021/10/30 05:39:25;;;;;;;93.55;49.20;;;;;;;10.42;100.00;100452.69;4977754;28;20038;-81
2021/10/30 05:41:51;;;;;;;97.47;52.72;;;;;;;10.60;100.00;100487.91;5011075;28;20042;-81
2021/10/30 05:44:17;;;;;;;98.85;51.35;;;;;;;10.57;100.00;100477.53;4990308;28;20045;-81
2021/10/30 05:46:43;;;;;;;99.38;49.83;;;;;;;10.46;100.00;100462.84;5009256;28;20026;-81
2021/10/30 05:49:10;;;;;;;97.13;49.40;;;;;;;10.64;100.00;100480.22;4978387;28;20066;-82
2021/10/30 05:51:35;;;;;;;98.93;49.85;;;;;;;10.60;100.00;100484.38;4995801;28;20136;-82
2021/10/30 05:54:02;;;;;;;92.93;48.17;;;;;;;10.69;100.00;100502.78;5011942;28;20038;-81
2021/10/30 05:56:28;;;;;;;97.28;47.92;;;;;;;10.66;100.00;100495.13;5012080;28;20050;-81
2021/10/30 05:58:54;;;;;;;94.00;47.75;;;;;;;10.61;100.00;100486.03;5013882;28;20026;-82
2021/10/30 06:01:19;;;;;;;102.30;47.47;;;;;;;10.71;100.00;100506.09;4980954;28;20069;-81
2021/10/30 06:03:44;;;;;;;86.72;45.17;;;;;;;10.72;100.00;100498.84;5014399;28;20037;-83
2021/10/30 06:11:22;;;;;;;94.85;43.28;;;;;;;10.51;100.00;100473.81;6112537;23;19997;-81
2021/10/30 06:13:48;;;;;;;86.40;42.05;;;;;;;9.81;100.00;100357.72;5014344;28;20042;-83
2021/10/30 06:16:13;;;;;;;87.90;41.00;;;;;;;10.76;100.00;100519.78;5014781;28;20086;-82
2021/10/30 06:18:39;;;;;;;78.97;40.60;;;;;;;9.53;100.00;100330.16;4990080;28;20041;-81
2021/10/30 06:21:04;;;;;;;84.78;40.20;;;;;;;10.44;100.00;100469.47;4987170;28;20034;-82
2021/10/30 06:23:31;;;;;;;81.45;40.50;;;;;;;9.85;100.00;100367.00;5006182;28;20100;-83
2021/10/30 06:25:57;;;;;;;84.18;40.17;;;;;;;9.71;100.00;100348.41;5015552;28;20026;-82
2021/10/30 06:28:23;;;;;;;73.40;38.45;;;;;;;9.98;100.00;100381.50;4998110;28;20065;-83
2021/10/30 06:30:49;;;;;;;80.85;39.58;;;;;;;10.22;100.00;100423.91;5011108;28;20074;-82
2021/10/30 06:35:50;;;;;;;79.60;37.67;;;;;;;9.66;100.00;100314.06;5178747;23;20038;-84
2021/10/30 06:38:15;;;;;;;80.60;38.13;;;;;;;9.63;100.00;100328.75;5517842;23;20093;-82
2021/10/30 06:40:41;;;;;;;74.38;38.17;;;;;;;9.85;100.00;100366.19;5000950;28;20042;-83
2021/10/30 06:48:09;;;;;;;79.80;38.72;;;;;;;10.05;100.00;100419.97;5027512;28;20046;-81
2021/10/30 06:50:36;;;;;;;77.43;38.65;;;;;;;9.94;100.00;100391.84;5034818;28;20118;-82
2021/10/30 06:53:01;;;;;;;77.15;38.95;;;;;;;10.08;100.00;100428.44;5033790;28;20036;-82
2021/10/30 06:58:00;;;;;;;85.85;38.45;;;;;;;9.37;100.00;100315.25;5014137;28;20046;-81
2021/10/30 07:00:26;;;;;;;78.10;39.47;;;;;;;9.44;100.00;100320.63;5012801;28;20033;-81
2021/10/30 07:02:53;;;;;;;82.53;39.70;;;;;;;9.91;100.00;100394.09;5009507;28;20030;-81
2021/10/30 07:05:20;;;;;;;83.10;39.88;;;;;;;9.45;100.00;100323.13;4998506;28;20031;-82
2021/10/30 07:07:46;;;;;;;78.38;38.00;;;;;;;10.73;100.00;100533.63;5006457;28;20368;-81
2021/10/30 07:10:13;;;;;;;74.50;38.33;;;;;;;9.99;100.00;100393.91;5014371;28;20026;-80
2021/10/30 07:12:39;;;;;;;78.15;38.80;;;;;;;9.94;100.00;100407.13;5011062;28;20053;-81
2021/10/30 07:15:11;;;;;;;76.88;37.88;;;;;;;9.62;100.00;100347.75;5009777;28;20034;-81
2021/10/30 07:17:37;;;;;;;74.32;37.65;;;;;;;9.61;100.00;100348.78;5008589;28;20037;-81
2021/10/30 07:20:04;;;;;;;80.80;36.72;;;;;;;9.52;100.00;100333.91;5011647;28;20022;-82
2021/10/30 07:22:29;;;;;;;69.32;35.65;;;;;;;9.99;100.00;100410.84;5027711;28;20097;-81
2021/10/30 07:24:55;;;;;;;74.35;35.67;;;;;;;9.65;100.00;100358.91;5000732;28;20022;-80
2021/10/30 07:27:21;;;;;;;76.28;36.67;;;;;;;10.82;100.00;100540.44;5020731;28;20338;-81
2021/10/30 07:29:49;;;;;;;78.10;37.25;;;;;;;9.80;100.00;100387.44;5012119;28;20022;-80
2021/10/30 07:32:18;;;;;;;71.38;36.35;;;;;;;10.26;100.00;100460.13;5004335;28;20061;-80
2021/10/30 07:34:44;;;;;;;77.10;36.28;;;;;;;10.44;100.00;100499.88;5017988;28;20037;-81
2021/10/30 07:37:11;;;;;;;75.00;35.97;;;;;;;10.52;100.00;100501.53;5023335;28;20022;-81
2021/10/30 07:39:36;;;;;;;74.57;35.85;;;;;;;9.80;100.00;100395.50;5010958;28;20018;-82
2021/10/30 08:00:49;;;;;;;75.07;34.63;;;;;;;10.94;100.00;100601.75;5791967;24;20431;-80
2021/10/30 08:03:15;;;;;;;70.25;34.75;;;;;;;10.99;100.00;100601.94;4846698;29;20137;-80
2021/10/30 08:05:40;;;;;;;71.80;35.05;;;;;;;11.01;100.00;100607.97;4845051;29;20046;-80
2021/10/30 08:08:06;;;;;;;68.82;35.05;;;;;;;10.84;100.00;100579.81;4835679;29;20594;-81
2021/10/30 08:10:32;;;;;;;65.60;36.20;;;;;;;10.90;100.00;100587.88;4858479;29;20049;-81
2021/10/30 08:12:58;;;;;;;101.57;60.72;;;;;;;11.01;100.00;100611.47;4864744;29;20023;-80
2021/10/30 08:15:23;;;;;;;72.30;38.33;;;;;;;10.89;100.00;100593.47;4858334;29;20034;-82
2021/10/30 08:17:52;;;;;;;72.90;36.45;;;;;;;11.03;100.00;100614.00;4840357;29;20058;-81
2021/10/30 08:20:17;;;;;;;66.95;34.97;;;;;;;11.01;100.00;100607.97;4843904;29;20355;-81
2021/10/30 08:43:21;;;;;;;55.63;32.35;;;;;;;11.42;100.00;100588.91;5069704;23;20071;-82
2021/10/30 11:32:41;;;;;;;38.90;26.47;;;;;;;13.02;100.00;100593.53;5828431;24;19927;31
2021/10/30 11:35:12;;;;;;;40.75;25.77;;;;;;;12.31;100.00;100470.50;4856405;29;20091;-82
2021/10/30 11:37:39;;;;;;;42.28;26.92;;;;;;;11.99;100.00;100432.78;4826273;29;20099;-79
2021/10/30 11:40:07;;;;;;;40.17;24.85;;;;;;;12.12;100.00;100454.25;4826146;29;20067;-81
2021/10/30 11:55:29;;;;;;;36.08;25.60;;;;;;;12.67;100.00;100504.91;5879194;24;20017;-73
2021/10/30 11:57:55;;;;;;;38.20;24.70;;;;;;;13.50;100.00;100623.47;4847663;29;20050;-80
2021/10/30 12:00:23;;;;;;;37.60;24.90;;;;;;;13.54;100.00;100621.13;4865289;29;20042;-83
2021/10/30 12:03:04;;;;;;;34.13;23.92;;;;;;;12.47;100.00;100472.69;5308445;24;20123;-81
2021/10/30 12:05:34;;;;;;;36.13;24.90;;;;;;;12.83;100.00;100522.44;4839749;29;20119;-80
2021/10/30 12:08:07;;;;;;;35.33;23.85;;;;;;;13.44;100.00;100615.41;4861024;29;20040;-82
2021/10/30 12:10:33;;;;;;;35.75;24.23;;;;;;;13.36;100.00;100616.53;4849088;29;20057;-82
2021/10/30 12:15:37;;;;;;;30.48;23.10;;;;;;;12.23;100.00;100477.81;5801486;24;20892;-82
2021/10/30 12:18:03;;;;;;;37.28;25.17;;;;;;;12.23;100.00;100485.91;5360026;24;20037;-82
2021/10/30 12:20:29;;;;;;;32.70;24.15;;;;;;;11.79;100.00;100422.09;4835946;29;20030;-81
2021/10/30 12:22:57;;;;;;;47.80;31.30;;;;;;;12.21;100.00;100471.00;4852045;29;20122;-80
2021/10/30 12:25:27;;;;;;;38.63;25.25;;;;;;;12.28;100.00;100476.34;4819705;29;20569;-81
2021/10/30 12:27:55;;;;;;;38.88;26.35;;;;;;;13.03;100.00;100596.00;4814035;29;20037;-79
2021/10/30 12:30:30;;;;;;;35.83;25.13;;;;;;;13.05;100.00;100598.50;4820889;29;20053;-80
2021/10/30 12:33:09;;;;;;;36.60;25.08;;;;;;;13.08;100.00;100589.97;4813483;29;20110;-80
2021/10/30 12:35:42;;;;;;;45.55;28.25;;;;;;;13.13;100.00;100590.09;4824794;29;20058;-80
2021/10/30 12:38:13;;;;;;;34.72;23.63;;;;;;;13.14;100.00;100589.91;4825618;29;20467;-81
2021/10/30 12:40:39;;;;;;;38.30;25.73;;;;;;;13.16;100.00;100586.97;4797722;29;20031;-80
2021/10/30 12:43:19;;;;;;;32.13;23.17;;;;;;;13.16;100.00;100590.50;4830130;29;20022;-81
2021/10/30 12:45:46;;;;;;;34.00;24.98;;;;;;;13.24;100.00;100591.25;4842647;29;20034;-82
2021/10/30 12:48:17;;;;;;;36.15;22.48;;;;;;;13.29;100.00;100588.75;4852859;29;20063;-79
2021/10/30 12:50:53;;;;;;;36.22;23.98;;;;;;;13.33;100.00;100592.66;4824178;29;20035;-82
2021/10/30 12:53:40;;;;;;;35.50;23.95;;;;;;;13.31;100.00;100575.81;4830736;29;20140;-84
2021/10/30 12:56:15;;;;;;;31.55;23.13;;;;;;;13.31;100.00;100587.50;4822850;29;20011;-83
2021/10/30 12:59:10;;;;;;;32.08;23.20;;;;;;;13.33;100.00;100596.19;4821774;29;20254;-82
2021/10/30 13:01:35;;;;;;;37.03;22.83;;;;;;;13.32;100.00;100585.59;4836199;29;20382;-82
2021/10/30 13:04:04;;;;;;;33.50;23.45;;;;;;;13.28;100.00;100589.81;4842708;29;20270;-83
2021/10/30 13:06:31;;;;;;;34.92;24.02;;;;;;;13.26;100.00;100584.63;4847614;29;20034;-82
2021/10/30 13:09:02;;;;;;;31.83;22.80;;;;;;;13.24;100.00;100577.75;4829626;29;20173;-81
2021/10/30 13:16:24;;;;;;;32.00;23.42;;;;;;;13.30;100.00;100547.16;4828025;24;20059;-81
2021/10/30 13:18:50;;;;;;;39.35;24.02;;;;;;;13.21;100.00;100551.16;4822095;29;20043;-83
2021/10/30 13:21:20;;;;;;;31.50;23.98;;;;;;;13.25;100.00;100547.03;4837005;29;20381;-81
2021/10/30 13:23:48;;;;;;;36.55;23.42;;;;;;;13.20;100.00;100544.13;4821642;29;20041;-81
2021/10/30 13:26:15;;;;;;;35.05;23.30;;;;;;;13.18;100.00;100541.66;4832581;29;20079;-81
2021/10/30 13:28:40;;;;;;;30.02;21.60;;;;;;;13.11;100.00;100532.75;4841557;29;20042;-81
2021/10/30 13:31:06;;;;;;;36.72;23.20;;;;;;;12.81;100.00;100486.72;4820144;29;20030;-81
2021/10/30 13:33:32;;;;;;;36.22;23.50;;;;;;;12.91;100.00;100516.72;4831905;29;20041;-81
2021/10/30 13:35:57;;;;;;;32.30;22.58;;;;;;;12.90;100.00;100517.78;4834366;29;20023;-81
2021/10/30 13:38:22;;;;;;;42.03;23.92;;;;;;;12.97;100.00;100521.25;4815116;29;20062;-81
2021/10/30 13:40:48;;;;;;;33.95;23.77;;;;;;;13.01;100.00;100541.38;4814459;29;20071;-80
2021/10/30 13:43:14;;;;;;;34.70;23.55;;;;;;;13.02;100.00;100537.63;4821523;29;20031;-81
2021/10/30 13:45:39;;;;;;;36.05;24.38;;;;;;;12.90;100.00;100515.09;4825069;29;20053;-81
2021/10/30 13:48:04;;;;;;;34.60;23.48;;;;;;;12.91;100.00;100527.53;4810823;29;20035;-82
2021/10/30 13:50:30;;;;;;;35.22;22.27;;;;;;;12.96;100.00;100527.72;4827302;29;20039;-80
2021/10/30 13:52:56;;;;;;;31.00;23.05;;;;;;;13.00;100.00;100530.78;4811215;29;20043;-80
2021/10/30 13:55:22;;;;;;;35.42;22.55;;;;;;;12.68;100.00;100480.41;4825820;29;20458;-81
2021/10/30 13:57:47;;;;;;;31.20;21.52;;;;;;;12.93;100.00;100520.06;4808726;29;20125;-80
2021/10/30 14:00:13;;;;;;;32.83;21.95;;;;;;;12.89;100.00;100516.16;4811354;29;20473;-80
2021/10/30 14:02:38;;;;;;;29.13;21.33;;;;;;;12.88;100.00;100522.56;4817649;29;20040;-80
2021/10/30 14:05:05;;;;;;;31.33;20.95;;;;;;;12.83;100.00;100525.13;4799283;29;20041;-82
2021/10/30 14:07:32;;;;;;;28.95;20.65;;;;;;;12.84;100.00;100527.59;4806583;29;20070;-81
2021/10/30 14:09:57;;;;;;;29.42;20.45;;;;;;;12.83;100.00;100538.63;4816027;29;20091;-81
2021/10/30 14:12:22;;;;;;;25.23;19.70;;;;;;;12.83;100.00;100522.44;4809463;29;20035;-81
2021/10/30 14:14:48;;;;;;;29.45;19.27;;;;;;;12.77;100.00;100517.91;4824489;29;20038;-80
2021/10/30 14:17:13;;;;;;;28.90;19.98;;;;;;;12.60;100.00;100504.94;4810915;29;20134;-81
2021/10/30 14:19:39;;;;;;;27.00;19.23;;;;;;;12.57;100.00;100509.97;4819432;29;20043;-82
2021/10/30 14:22:04;;;;;;;30.17;19.25;;;;;;;12.63;100.00;100514.50;4817262;29;20041;-81
2021/10/30 14:24:29;;;;;;;26.23;19.35;;;;;;;12.62;100.00;100513.66;4817293;29;20121;-82
2021/10/30 14:26:57;;;;;;;32.95;19.85;;;;;;;12.58;100.00;100512.47;4802487;29;20070;-82
2021/10/30 14:29:23;;;;;;;29.92;19.25;;;;;;;12.48;100.00;100489.69;4819480;29;20060;-82
2021/10/30 14:31:52;;;;;;;31.65;19.63;;;;;;;12.51;100.00;100502.75;4821397;29;20039;-82
2021/10/30 14:34:17;;;;;;;27.52;19.95;;;;;;;12.47;100.00;100507.75;4816131;29;20031;-81
2021/10/30 14:36:43;;;;;;;28.60;20.60;;;;;;;12.35;100.00;100496.00;4815724;29;20035;-81
2021/10/30 14:39:08;;;;;;;34.28;20.50;;;;;;;12.44;100.00;100517.09;4826357;29;20022;-82
2021/10/30 14:41:34;;;;;;;31.55;20.90;;;;;;;12.44;100.00;100513.59;4833793;29;20027;-81
2021/10/30 14:44:00;;;;;;;25.60;19.67;;;;;;;11.61;100.00;100376.16;4856157;24;20023;-78
2021/10/30 14:46:30;;;;;;;31.38;20.15;;;;;;;11.23;100.00;100321.25;4838303;29;20042;-80
2021/10/30 14:48:55;;;;;;;32.00;20.52;;;;;;;12.34;100.00;100494.34;4837545;29;20066;-81
2021/10/30 14:51:23;;;;;;;29.65;20.35;;;;;;;12.31;100.00;100484.00;4839911;29;20030;-80
2021/10/30 14:53:49;;;;;;;30.35;20.15;;;;;;;12.32;100.00;100485.69;4840880;29;20050;-80
2021/10/30 14:56:15;;;;;;;36.75;22.10;;;;;;;12.26;100.00;100481.16;4845648;29;20042;-80
2021/10/30 14:58:41;;;;;;;31.40;19.95;;;;;;;12.02;100.00;100448.53;4844947;29;20027;-80
2021/10/30 15:01:06;;;;;;;29.20;20.90;;;;;;;12.25;100.00;100496.50;4840022;29;20116;-79